Terminal Aerodrome Forecast
Issued by NWS

Home | Current Version | Previous Version | Text Only | Print | Product List | Glossary On
Versions: 1 2 3 4 5 6 7 8 9 10 11 12 13 14 15 16 17 18 19 20
862
FTUS44 KLZK 251402 AAA
TAFBPK
TAF AMD
KBPK 251402Z 2514/2612 VRB05KT P6SM VCSH SCT002 BKN100
      TEMPO 2514/2516 6SM BR BKN002
     FM251600 16010KT P6SM VCTS SCT025 BKN050CB
      TEMPO 2516/2518 4SM -TSRA BR OVC025CB
     FM260600 VRB06KT 4SM BR BKN010 OVC025
     FM261000 VRB06KT 4SM BR BKN005 OVC010=

USA.gov is the U.S. government's official web portal to all federal, state and local government web resources and services.